Huvudsida
METAR-TAF:

METAR-TAF

Flygplatser :

Pratica Di Mare, Italien

latitud: 41-39N, longitud: 012-27E, höjd: 6 m

Aktuellt väderrapport

Denna rapport gjordes för 37 minuter sedan, klockan 20:55 UTC
Vind 7 kt från nord/nordost
Temperatur 9°C
Fuktighet 87%
Tryck 1012 hPa
Sikt 10 km eller mer
Inga moln under 1 500 m eller inga cumulonimbus

METAR: LIRE 142055Z 03007KT CAVOK 09/07 Q1012 RMK SKC VIS MIN 9999 WIND THR13 05004KT WIND THR31 03006KT BLU

Tid: 22:32 (21:32 UTC)

Väderprognos

Denna rapport gjordes för 1 timme och 32 minuter sedan, klockan 20:00 UTC
Prognos gäller från 14 kl. 21 UTC till 15 kl. 06 UTC
Vind 5 kt från nordost
Sikt 10 km eller mer
Inga moln under 1 500 m eller inga cumulonimbus

TAF: LIRE 142000Z 1421/1506 04005KT CAVOK

Aktuella väderrapporter och prognoser från 4000 flygplatser (METAR- och TAF-rapporter).

De tillgängliga stationerna syns som gula och röda prickar på kartan.

För musen över prickarna för att se namnen på stationerna.

Klicka sedan för att få väderrapporter och prognoser.

För att ändra kartan: Klicka på de gröna knapparna med ett svart kors på för att zooma in; den gröna knappen med ett streck på för att zooma ut; eller på de gröna pilarna för angränsande kartor.


METAR-TAF: